Time;durP1;ratioP1;P1;durP2;ratioP2;P2;SDS_P1;SDS_P2;PMS_P1;PMS_P2;Temp;Humidity;BMP_temperature;BMP_pressure;BME280_temperature;BME280_humidity;BME280_pressure;Samples;Min_cycle;Max_cycle;Signal;HPM_P1;HPM_P2
2022/04/26 03:36:59;;;;;;;2.40;1.63;;;;;;;;;;5072673;28;20032;-46
2022/04/26 03:39:25;;;;;;;1.77;1.52;;;;;;;;;;5071875;28;20021;-45
2022/04/26 03:41:52;;;;;;;2.35;1.70;;;;;;;;;;5071846;28;20029;-45
2022/04/26 03:44:18;;;;;;;2.08;1.83;;;;;;;;;;5071870;28;20029;-49
2022/04/26 03:46:44;;;;;;;1.80;1.17;;;;;;;;;;5072389;28;20051;-48
2022/04/26 03:49:10;;;;;;;1.30;1.20;;;;;;;;;;5072646;28;20040;-45
2022/04/26 03:51:36;;;;;;;2.25;1.30;;;;;;;;;;5072206;28;20017;-45
2022/04/26 03:54:02;;;;;;;1.65;1.27;;;;;;;;;;5086498;28;20078;-45
2022/04/26 03:56:28;;;;;;;1.27;1.10;;;;;;;;;;5070852;28;20020;-46
2022/04/26 03:58:53;;;;;;;1.50;1.40;;;;;;;;;;5072472;28;20023;-46
2022/04/26 04:01:19;;;;;;;2.10;1.30;;;;;;;;;;5071332;28;20031;-46
2022/04/26 04:03:45;;;;;;;2.20;1.50;;;;;;;;;;5071913;28;20094;-48
2022/04/26 04:06:11;;;;;;;1.45;1.35;;;;;;;;;;5072051;28;20404;-45
2022/04/26 04:08:37;;;;;;;1.75;1.60;;;;;;;;;;5071391;28;20092;-45
2022/04/26 04:11:03;;;;;;;1.88;1.38;;;;;;;;;;5072157;28;20116;-50
2022/04/26 04:13:29;;;;;;;1.85;1.45;;;;;;;;;;5070846;28;20024;-47
2022/04/26 04:15:56;;;;;;;1.55;1.27;;;;;;;;;;5072004;28;20024;-47
2022/04/26 04:21:07;;;;;;;1.50;1.10;;;;;;;;;;5071803;28;20082;-45
2022/04/26 04:23:36;;;;;;;1.67;1.30;;;;;;;;;;5070938;28;20436;-45
2022/04/26 04:26:02;;;;;;;1.80;1.38;;;;;;;;;;5071907;28;20032;-45
2022/04/26 04:28:28;;;;;;;1.80;1.40;;;;;;;;;;5071277;28;20102;-45
2022/04/26 04:30:54;;;;;;;1.35;1.15;;;;;;;;;;5072146;28;20107;-45
2022/04/26 04:33:20;;;;;;;1.30;1.20;;;;;;;;;;5071233;28;20116;-53
2022/04/26 04:35:46;;;;;;;2.42;1.30;;;;;;;;;;5071643;28;20021;-45
2022/04/26 04:38:12;;;;;;;1.55;1.30;;;;;;;;;;5071895;28;20027;-45
2022/04/26 04:40:38;;;;;;;1.60;1.20;;;;;;;;;;5071255;28;20635;-45
2022/04/26 04:43:04;;;;;;;2.00;1.30;;;;;;;;;;5071725;28;20103;-47
2022/04/26 04:45:30;;;;;;;1.45;1.17;;;;;;;;;;5070649;28;20554;-45
2022/04/26 04:47:56;;;;;;;2.03;1.25;;;;;;;;;;5071550;28;20024;-45
2022/04/26 04:50:22;;;;;;;1.60;1.50;;;;;;;;;;5071288;28;20039;-46
2022/04/26 04:52:48;;;;;;;2.15;1.58;;;;;;;;;;5079544;28;20102;-45
2022/04/26 04:55:14;;;;;;;1.95;1.48;;;;;;;;;;5082651;28;20024;-45
2022/04/26 04:57:40;;;;;;;1.85;1.25;;;;;;;;;;5070671;28;20079;-46
2022/04/26 05:00:07;;;;;;;1.65;1.40;;;;;;;;;;5071589;28;20162;-45
2022/04/26 05:02:33;;;;;;;1.23;1.13;;;;;;;;;;5070818;28;20032;-47
2022/04/26 05:05:00;;;;;;;1.40;1.30;;;;;;;;;;5071682;28;20025;-46
2022/04/26 05:07:26;;;;;;;1.40;1.30;;;;;;;;;;5070371;28;20025;-46
2022/04/26 05:09:52;;;;;;;1.98;1.10;;;;;;;;;;5071024;28;20024;-45
2022/04/26 05:12:19;;;;;;;2.63;1.10;;;;;;;;;;5071260;28;20036;-45
2022/04/26 05:14:45;;;;;;;1.65;1.25;;;;;;;;;;5070724;28;20047;-45
2022/04/26 05:17:11;;;;;;;1.55;1.33;;;;;;;;;;5071341;28;20036;-45
2022/04/26 05:19:37;;;;;;;1.00;0.90;;;;;;;;;;5070565;28;20032;-45
2022/04/26 05:22:08;;;;;;;1.13;1.02;;;;;;;;;;5073927;28;20382;-46
2022/04/26 05:27:19;;;;;;;1.40;1.13;;;;;;;;;;5079194;28;20106;-45
2022/04/26 05:29:45;;;;;;;1.38;1.00;;;;;;;;;;5074071;28;20459;-45
2022/04/26 05:32:11;;;;;;;1.05;0.95;;;;;;;;;;5075002;28;20031;-46
2022/04/26 05:34:37;;;;;;;2.05;1.17;;;;;;;;;;5074634;28;20099;-46
2022/04/26 05:37:03;;;;;;;1.42;1.30;;;;;;;;;;5074567;28;20051;-46
2022/04/26 05:39:29;;;;;;;1.50;1.40;;;;;;;;;;5074106;28;20032;-47
2022/04/26 05:41:55;;;;;;;1.40;1.13;;;;;;;;;;5074691;28;20035;-46
2022/04/26 05:44:21;;;;;;;1.52;1.20;;;;;;;;;;5073885;28;20056;-53
2022/04/26 05:46:47;;;;;;;1.83;1.40;;;;;;;;;;5074183;28;20465;-45
2022/04/26 05:49:13;;;;;;;1.95;1.00;;;;;;;;;;5075210;28;20077;-45
2022/04/26 05:51:39;;;;;;;1.45;1.10;;;;;;;;;;5073830;28;20020;-50
2022/04/26 05:54:05;;;;;;;1.73;1.30;;;;;;;;;;5089880;28;20039;-46
2022/04/26 05:56:32;;;;;;;1.77;1.13;;;;;;;;;;5080297;28;20472;-46
2022/04/26 05:58:58;;;;;;;2.88;1.08;;;;;;;;;;5074563;28;20111;-46
2022/04/26 06:01:24;;;;;;;5.40;1.67;;;;;;;;;;5073877;28;20126;-54
2022/04/26 06:03:50;;;;;;;2.00;1.50;;;;;;;;;;5073765;28;20024;-45
2022/04/26 06:06:16;;;;;;;2.30;1.10;;;;;;;;;;5072635;28;20025;-53
2022/04/26 06:08:42;;;;;;;4.43;1.27;;;;;;;;;;5070327;28;20040;-49
2022/04/26 06:11:08;;;;;;;4.20;2.88;;;;;;;;;;5075732;28;20078;-48
2022/04/26 06:13:34;;;;;;;9.60;3.38;;;;;;;;;;5073493;28;20412;-46
2022/04/26 06:16:00;;;;;;;4.63;2.92;;;;;;;;;;5073515;28;20027;-44
2022/04/26 06:18:26;;;;;;;5.13;2.30;;;;;;;;;;5072945;28;20024;-53
2022/04/26 06:20:52;;;;;;;3.50;2.00;;;;;;;;;;5073546;28;20027;-44
2022/04/26 06:23:18;;;;;;;2.83;1.85;;;;;;;;;;5081709;28;20032;-48
2022/04/26 06:25:44;;;;;;;1.83;1.50;;;;;;;;;;5087135;28;20016;-48
2022/04/26 06:28:10;;;;;;;2.35;1.55;;;;;;;;;;5073360;28;20406;-47
2022/04/26 06:30:39;;;;;;;2.42;1.33;;;;;;;;;;5073077;28;20082;-47
2022/04/26 06:33:06;;;;;;;6.28;1.63;;;;;;;;;;5073751;28;20119;-49
2022/04/26 06:35:32;;;;;;;2.55;1.40;;;;;;;;;;5072825;28;20050;-48
2022/04/26 06:37:58;;;;;;;2.90;1.48;;;;;;;;;;5073446;28;20021;-48
2022/04/26 06:40:25;;;;;;;2.90;1.23;;;;;;;;;;5073396;28;20033;-53
2022/04/26 06:42:51;;;;;;;1.80;1.30;;;;;;;;;;5073549;28;20504;-49
2022/04/26 06:45:17;;;;;;;2.88;1.45;;;;;;;;;;5073567;28;20033;-51
2022/04/26 06:47:44;;;;;;;6.53;3.38;;;;;;;;;;5073027;28;20028;-49
2022/04/26 06:50:10;;;;;;;6.15;5.05;;;;;;;;;;5072889;28;20109;-54
2022/04/26 06:52:36;;;;;;;8.13;4.57;;;;;;;;;;5073347;28;20083;-52
2022/04/26 06:55:03;;;;;;;7.07;5.40;;;;;;;;;;5090165;28;20453;-49
2022/04/26 06:57:29;;;;;;;5.90;4.93;;;;;;;;;;5072338;28;20111;-52
2022/04/26 06:59:55;;;;;;;5.82;4.38;;;;;;;;;;5073478;28;20055;-48
2022/04/26 07:02:22;;;;;;;7.35;5.60;;;;;;;;;;5072300;28;20037;-48
2022/04/26 07:04:48;;;;;;;7.50;4.82;;;;;;;;;;5072404;28;20020;-50
2022/04/26 07:07:14;;;;;;;5.60;4.88;;;;;;;;;;5073372;28;20429;-47
2022/04/26 07:09:40;;;;;;;7.55;4.40;;;;;;;;;;5072293;28;20048;-49
2022/04/26 07:12:07;;;;;;;5.70;3.70;;;;;;;;;;5073058;28;20067;-48
2022/04/26 07:14:33;;;;;;;5.57;3.05;;;;;;;;;;5079569;28;20028;-49
2022/04/26 07:17:01;;;;;;;4.40;2.55;;;;;;;;;;5072846;28;20051;-53
2022/04/26 07:19:28;;;;;;;3.53;2.50;;;;;;;;;;5073006;28;20024;-54
2022/04/26 07:21:54;;;;;;;3.60;2.05;;;;;;;;;;5072839;28;20048;-49
2022/04/26 07:24:20;;;;;;;2.70;1.95;;;;;;;;;;5083406;28;20056;-50
2022/04/26 07:26:46;;;;;;;4.45;2.38;;;;;;;;;;5071762;28;20066;-49
2022/04/26 07:29:14;;;;;;;1.77;1.52;;;;;;;;;;5072419;28;20055;-49
2022/04/26 07:31:40;;;;;;;6.35;1.73;;;;;;;;;;5071768;28;20020;-50
2022/04/26 07:34:21;;;;;;;2.17;1.60;;;;;;;;;;5072498;28;20025;-48
2022/04/26 07:36:48;;;;;;;2.53;1.65;;;;;;;;;;5070383;28;20154;-48
2022/04/26 07:39:17;;;;;;;2.53;1.73;;;;;;;;;;5071200;28;20020;-49
2022/04/26 07:41:43;;;;;;;1.33;1.23;;;;;;;;;;5071672;28;20013;-48
2022/04/26 07:44:09;;;;;;;1.90;1.55;;;;;;;;;;5072782;28;20041;-49
2022/04/26 07:46:35;;;;;;;2.65;1.70;;;;;;;;;;5070833;28;20067;-49
2022/04/26 07:49:01;;;;;;;3.38;1.50;;;;;;;;;;5072531;28;20028;-48
2022/04/26 07:51:27;;;;;;;2.60;1.60;;;;;;;;;;5072163;28;20557;-48
2022/04/26 07:53:53;;;;;;;1.58;1.35;;;;;;;;;;5079608;28;20028;-50
2022/04/26 07:56:19;;;;;;;1.63;1.40;;;;;;;;;;5083275;28;20111;-49
2022/04/26 07:58:45;;;;;;;2.20;1.40;;;;;;;;;;5070828;28;20439;-48
2022/04/26 08:01:11;;;;;;;4.03;1.27;;;;;;;;;;5072056;28;20107;-53
2022/04/26 08:03:37;;;;;;;1.30;1.20;;;;;;;;;;5071115;28;20041;-48
2022/04/26 08:06:03;;;;;;;1.38;1.25;;;;;;;;;;5071519;28;20036;-51
2022/04/26 08:08:29;;;;;;;2.83;1.70;;;;;;;;;;5068362;28;20024;-54
2022/04/26 08:10:55;;;;;;;3.17;1.50;;;;;;;;;;5072575;28;20051;-51
2022/04/26 08:13:21;;;;;;;2.17;1.42;;;;;;;;;;5079150;28;20032;-48
2022/04/26 08:15:47;;;;;;;1.52;1.42;;;;;;;;;;5070829;28;20028;-48
2022/04/26 08:18:13;;;;;;;1.70;1.25;;;;;;;;;;5071188;28;20036;-49
2022/04/26 08:20:39;;;;;;;1.92;1.40;;;;;;;;;;5070976;28;20103;-49
2022/04/26 08:23:06;;;;;;;2.08;1.60;;;;;;;;;;5071237;28;20434;-49
2022/04/26 08:28:18;;;;;;;1.27;1.10;;;;;;;;;;5070529;28;20054;-51
2022/04/26 08:30:44;;;;;;;2.42;1.23;;;;;;;;;;5070168;28;20478;-50
2022/04/26 08:33:10;;;;;;;2.97;1.60;;;;;;;;;;5071208;28;20032;-50
2022/04/26 08:35:36;;;;;;;2.70;1.50;;;;;;;;;;5070684;28;20120;-50
2022/04/26 08:38:02;;;;;;;2.00;1.30;;;;;;;;;;5071194;28;20052;-49
2022/04/26 08:40:28;;;;;;;3.10;1.30;;;;;;;;;;5071433;28;20067;-49
2022/04/26 08:42:54;;;;;;;1.40;1.08;;;;;;;;;;5073086;28;20882;-51
2022/04/26 08:45:21;;;;;;;1.27;1.17;;;;;;;;;;5090310;28;20097;-51
2022/04/26 08:53:19;;;;;;;1.90;1.27;;;;;;;;;;5071753;28;20073;-48
2022/04/26 08:55:46;;;;;;;2.65;1.42;;;;;;;;;;5092884;28;20024;-51
2022/04/26 08:58:13;;;;;;;2.22;1.70;;;;;;;;;;5096239;28;20085;-47
2022/04/26 09:00:40;;;;;;;2.00;1.30;;;;;;;;;;5083376;28;20086;-47
2022/04/26 09:03:07;;;;;;;1.83;1.33;;;;;;;;;;5075394;28;20052;-49
2022/04/26 09:05:34;;;;;;;2.97;1.30;;;;;;;;;;5074930;28;20426;-54
2022/04/26 09:08:00;;;;;;;3.92;1.50;;;;;;;;;;5075320;28;20028;-50
2022/04/26 09:10:29;;;;;;;2.03;1.50;;;;;;;;;;5074340;28;20187;-49
2022/04/26 09:13:04;;;;;;;2.08;1.30;;;;;;;;;;5077423;28;20028;-48
2022/04/26 09:15:49;;;;;;;3.22;1.48;;;;;;;;;;5083491;28;20090;-50
2022/04/26 09:18:21;;;;;;;2.25;1.40;;;;;;;;;;5055310;28;20033;-50
2022/04/26 09:20:49;;;;;;;1.90;1.33;;;;;;;;;;5068011;28;20025;-52
2022/04/26 09:23:16;;;;;;;3.45;1.83;;;;;;;;;;5075259;28;20032;-50
2022/04/26 09:25:42;;;;;;;2.50;1.40;;;;;;;;;;5092799;28;20024;-49
2022/04/26 09:28:08;;;;;;;2.83;1.50;;;;;;;;;;5074516;28;20044;-52
2022/04/26 09:30:35;;;;;;;2.10;1.30;;;;;;;;;;5074635;28;20115;-54
2022/04/26 09:33:01;;;;;;;1.92;1.35;;;;;;;;;;5074680;28;20029;-50
2022/04/26 09:35:29;;;;;;;2.17;1.50;;;;;;;;;;5074812;28;20032;-52
2022/04/26 09:37:55;;;;;;;3.63;1.20;;;;;;;;;;5074079;28;20024;-49
2022/04/26 09:40:21;;;;;;;1.83;1.20;;;;;;;;;;5074436;28;20021;-49
2022/04/26 09:42:48;;;;;;;2.05;1.02;;;;;;;;;;5076034;28;20104;-51
2022/04/26 09:45:16;;;;;;;1.67;1.58;;;;;;;;;;5079474;28;20089;-51
2022/04/26 09:47:43;;;;;;;1.63;1.48;;;;;;;;;;5072415;28;20016;-50
2022/04/26 09:50:10;;;;;;;1.70;1.25;;;;;;;;;;5074304;28;20052;-49
2022/04/26 09:52:36;;;;;;;2.17;1.50;;;;;;;;;;5073948;28;20028;-55
2022/04/26 09:55:04;;;;;;;1.85;1.40;;;;;;;;;;5087420;28;20046;-49
2022/04/26 09:57:32;;;;;;;4.22;1.52;;;;;;;;;;5094856;28;20036;-52
2022/04/26 10:00:03;;;;;;;2.33;1.30;;;;;;;;;;5094056;28;20110;-49
2022/04/26 10:02:34;;;;;;;2.55;1.25;;;;;;;;;;5077921;28;20048;-48
2022/04/26 10:05:03;;;;;;;1.67;1.40;;;;;;;;;;5074484;28;20052;-50
2022/04/26 10:07:31;;;;;;;1.98;1.27;;;;;;;;;;5074394;28;20021;-49
2022/04/26 10:09:57;;;;;;;2.10;1.70;;;;;;;;;;5073231;28;20606;-49
2022/04/26 10:12:23;;;;;;;3.40;1.30;;;;;;;;;;5074144;28;20071;-48
2022/04/26 10:14:49;;;;;;;3.28;1.35;;;;;;;;;;5077023;28;20103;-49
2022/04/26 10:17:19;;;;;;;1.90;1.30;;;;;;;;;;5073794;28;20024;-50
2022/04/26 10:19:45;;;;;;;1.42;1.20;;;;;;;;;;5073199;28;20020;-49
2022/04/26 10:22:14;;;;;;;1.85;1.10;;;;;;;;;;5069918;28;20033;-50
2022/04/26 10:24:41;;;;;;;1.52;1.35;;;;;;;;;;5082957;28;20032;-51
2022/04/26 10:27:17;;;;;;;4.57;1.50;;;;;;;;;;5075894;28;20063;-53
2022/04/26 10:29:46;;;;;;;2.00;1.50;;;;;;;;;;5073756;28;20024;-53
2022/04/26 10:32:29;;;;;;;2.42;1.25;;;;;;;;;;5073616;28;20052;-52
2022/04/26 10:34:55;;;;;;;3.15;2.63;;;;;;;;;;5072183;28;20104;-49
2022/04/26 10:37:21;;;;;;;3.33;2.03;;;;;;;;;;5061097;28;20111;-47
2022/04/26 10:39:58;;;;;;;2.38;1.70;;;;;;;;;;5052975;28;20100;-48
2022/04/26 10:42:31;;;;;;;1.98;1.20;;;;;;;;;;5069127;28;20036;-47
2022/04/26 10:44:59;;;;;;;2.08;1.50;;;;;;;;;;5052942;28;20068;-49
2022/04/26 10:47:25;;;;;;;1.48;1.20;;;;;;;;;;5056035;28;20029;-48
2022/04/26 10:49:52;;;;;;;1.92;1.23;;;;;;;;;;5072388;28;20384;-48
2022/04/26 10:52:24;;;;;;;2.50;1.27;;;;;;;;;;5072907;28;20028;-48
2022/04/26 10:54:58;;;;;;;;;;;;;;;;;;5071582;28;20493;-47
2022/04/26 10:57:25;;;;;;;2.78;1.27;;;;;;;;;;5076013;28;19919;-47
2022/04/26 11:00:33;;;;;;;1.88;1.38;;;;;;;;;;5071656;28;20017;-53
2022/04/26 11:03:02;;;;;;;2.60;1.40;;;;;;;;;;4992093;28;20081;-51
2022/04/26 11:05:32;;;;;;;3.20;1.38;;;;;;;;;;4991408;28;20476;-54
2022/04/26 11:07:58;;;;;;;2.15;1.20;;;;;;;;;;4990363;28;20129;-48
2022/04/26 11:10:25;;;;;;;3.53;1.52;;;;;;;;;;5006173;28;20470;-48
2022/04/26 11:12:51;;;;;;;1.90;0.95;;;;;;;;;;5003925;28;20070;-51
2022/04/26 11:15:21;;;;;;;1.83;1.50;;;;;;;;;;5010894;28;20502;-48
2022/04/26 11:17:49;;;;;;;2.92;1.25;;;;;;;;;;5009576;28;20045;-49
2022/04/26 11:20:19;;;;;;;1.58;1.20;;;;;;;;;;4995729;28;20504;-50
2022/04/26 11:22:46;;;;;;;1.33;1.23;;;;;;;;;;4998708;28;20065;-53
2022/04/26 11:28:06;;;;;;;1.85;1.30;;;;;;;;;;4990090;28;20518;-47
2022/04/26 11:30:36;;;;;;;2.78;1.60;;;;;;;;;;4990473;28;20427;-52
2022/04/26 11:33:03;;;;;;;2.15;1.58;;;;;;;;;;5016903;28;20133;-51
2022/04/26 11:35:30;;;;;;;2.33;1.65;;;;;;;;;;5072047;28;20032;-50
2022/04/26 11:37:57;;;;;;;2.92;1.60;;;;;;;;;;5051776;28;20047;-48
2022/04/26 11:40:26;;;;;;;2.28;1.60;;;;;;;;;;5053567;28;20052;-48
2022/04/26 11:42:53;;;;;;;2.22;2.03;;;;;;;;;;5071674;28;20077;-52
2022/04/26 11:45:20;;;;;;;2.20;1.48;;;;;;;;;;5053465;28;20029;-51
2022/04/26 11:47:48;;;;;;;3.22;1.50;;;;;;;;;;5066109;28;20104;-57
2022/04/26 11:50:16;;;;;;;1.95;1.48;;;;;;;;;;5071611;28;20449;-50
2022/04/26 11:52:43;;;;;;;2.80;1.50;;;;;;;;;;5071505;28;20393;-53
2022/04/26 11:55:29;;;;;;;1.40;1.30;;;;;;;;;;5071339;28;20024;-49
2022/04/26 11:58:06;;;;;;;2.42;1.80;;;;;;;;;;5071022;28;20032;-50
2022/04/26 12:00:33;;;;;;;1.92;1.52;;;;;;;;;;5071500;28;20021;-50
2022/04/26 12:02:59;;;;;;;2.22;1.52;;;;;;;;;;5070067;28;20436;-52
2022/04/26 12:05:26;;;;;;;1.45;1.35;;;;;;;;;;5072288;28;20024;-49
2022/04/26 12:07:52;;;;;;;2.45;1.50;;;;;;;;;;5071281;28;20024;-52
2022/04/26 12:10:25;;;;;;;2.15;1.50;;;;;;;;;;5071572;28;20618;-48
2022/04/26 12:12:57;;;;;;;2.05;1.48;;;;;;;;;;5073758;28;20553;-48
2022/04/26 12:15:24;;;;;;;1.73;1.35;;;;;;;;;;5082766;28;20024;-50
2022/04/26 12:18:02;;;;;;;1.95;1.67;;;;;;;;;;5065149;28;20040;-52
2022/04/26 12:20:28;;;;;;;1.52;1.42;;;;;;;;;;5072540;28;20032;-52
2022/04/26 12:22:54;;;;;;;2.70;1.70;;;;;;;;;;5072065;28;20024;-53
2022/04/26 12:25:20;;;;;;;1.85;1.40;;;;;;;;;;5071922;28;20079;-49
2022/04/26 12:28:01;;;;;;;2.47;1.60;;;;;;;;;;5071373;28;20063;-54
2022/04/26 12:30:29;;;;;;;1.70;1.30;;;;;;;;;;5071185;28;20513;-49
2022/04/26 12:32:55;;;;;;;1.77;1.30;;;;;;;;;;5070858;28;20032;-49
2022/04/26 12:35:21;;;;;;;1.67;1.30;;;;;;;;;;5071510;28;20031;-48
2022/04/26 12:37:48;;;;;;;2.20;1.20;;;;;;;;;;5071191;28;20023;-53
2022/04/26 12:40:17;;;;;;;6.13;1.45;;;;;;;;;;5071454;28;20147;-48
2022/04/26 12:42:45;;;;;;;4.32;1.73;;;;;;;;;;5072111;28;20037;-48
2022/04/26 12:45:11;;;;;;;2.42;1.40;;;;;;;;;;5089916;28;20028;-51
2022/04/26 12:50:36;;;;;;;1.70;1.38;;;;;;;;;;5075185;28;20043;-48
2022/04/26 12:53:06;;;;;;;1.83;1.40;;;;;;;;;;5071167;28;20071;-48
2022/04/26 12:55:34;;;;;;;2.53;1.50;;;;;;;;;;5079725;28;20461;-48
2022/04/26 12:58:04;;;;;;;1.30;1.20;;;;;;;;;;5085517;28;20366;-51
2022/04/26 13:00:31;;;;;;;2.67;1.23;;;;;;;;;;5088005;28;20521;-51
2022/04/26 13:02:59;;;;;;;1.85;1.30;;;;;;;;;;5070438;28;20037;-51
2022/04/26 13:05:25;;;;;;;1.48;1.10;;;;;;;;;;5071699;28;20020;-50
2022/04/26 13:07:52;;;;;;;1.55;0.95;;;;;;;;;;5070674;28;20082;-55
2022/04/26 13:10:18;;;;;;;1.95;0.95;;;;;;;;;;5071183;28;20032;-50
2022/04/26 13:12:45;;;;;;;1.83;1.20;;;;;;;;;;5073002;28;20498;-52
2022/04/26 13:15:13;;;;;;;1.40;1.10;;;;;;;;;;5082066;28;20023;-50
2022/04/26 13:17:39;;;;;;;2.35;1.00;;;;;;;;;;5069673;28;20469;-51
2022/04/26 13:20:06;;;;;;;1.52;1.13;;;;;;;;;;5069420;28;20024;-50
2022/04/26 13:22:35;;;;;;;2.10;1.60;;;;;;;;;;5071110;28;20032;-50
2022/04/26 13:25:03;;;;;;;3.42;1.23;;;;;;;;;;5073246;28;20380;-50
2022/04/26 13:27:29;;;;;;;1.42;1.08;;;;;;;;;;5070475;28;20041;-50
2022/04/26 13:29:55;;;;;;;1.50;1.13;;;;;;;;;;5069291;28;20021;-51
2022/04/26 13:32:21;;;;;;;1.40;1.00;;;;;;;;;;5070893;28;20060;-52
2022/04/26 13:34:48;;;;;;;2.10;1.25;;;;;;;;;;5069347;28;20032;-50
2022/04/26 13:37:14;;;;;;;2.42;1.52;;;;;;;;;;5070579;28;20036;-50
2022/04/26 13:39:43;;;;;;;1.98;1.10;;;;;;;;;;5069737;28;20031;-51
2022/04/26 13:42:10;;;;;;;2.60;1.10;;;;;;;;;;5070594;28;20079;-52
2022/04/26 13:44:36;;;;;;;1.73;0.90;;;;;;;;;;5091665;28;20495;-52
2022/04/26 13:47:04;;;;;;;1.75;1.00;;;;;;;;;;5088415;28;20028;-50
2022/04/26 13:49:31;;;;;;;5.28;1.45;;;;;;;;;;5068864;28;20033;-50
2022/04/26 13:51:58;;;;;;;2.42;1.00;;;;;;;;;;5073484;28;20059;-50
2022/04/26 13:54:27;;;;;;;1.67;1.00;;;;;;;;;;5072371;28;20025;-51
2022/04/26 13:56:53;;;;;;;1.77;0.82;;;;;;;;;;5078909;28;20453;-51
2022/04/26 13:59:19;;;;;;;1.33;1.00;;;;;;;;;;5089478;28;20028;-51
2022/04/26 14:01:45;;;;;;;1.27;0.85;;;;;;;;;;5079574;28;20025;-50
2022/04/26 14:04:11;;;;;;;5.47;1.27;;;;;;;;;;5067132;28;20031;-52
2022/04/26 14:06:37;;;;;;;1.40;0.98;;;;;;;;;;5075378;28;20343;-51
2022/04/26 14:09:03;;;;;;;2.10;1.15;;;;;;;;;;5073479;28;20085;-50
2022/04/26 14:11:30;;;;;;;1.33;1.00;;;;;;;;;;5073738;28;20080;-52
2022/04/26 14:22:09;;;;;;;2.38;0.90;;;;;;;;;;5072130;28;20121;-52
2022/04/26 14:24:35;;;;;;;1.83;1.00;;;;;;;;;;5072194;28;20760;-50
2022/04/26 14:27:02;;;;;;;3.95;1.38;;;;;;;;;;5079926;28;20060;-53
2022/04/26 14:29:28;;;;;;;2.03;1.50;;;;;;;;;;5077305;28;20024;-54
2022/04/26 14:31:54;;;;;;;2.35;1.52;;;;;;;;;;5082759;28;20120;-52
2022/04/26 14:34:20;;;;;;;3.08;1.50;;;;;;;;;;5072509;28;20111;-50
2022/04/26 14:36:46;;;;;;;2.38;1.38;;;;;;;;;;5072992;28;20082;-52
2022/04/26 14:39:12;;;;;;;2.17;1.52;;;;;;;;;;5072270;28;20228;-52
2022/04/26 14:41:40;;;;;;;2.85;1.90;;;;;;;;;;5072900;28;20407;-53
2022/04/26 14:44:06;;;;;;;3.20;1.70;;;;;;;;;;5079871;28;20081;-51
2022/04/26 14:46:33;;;;;;;3.40;1.30;;;;;;;;;;5073346;28;20040;-48
2022/04/26 14:48:59;;;;;;;2.13;1.38;;;;;;;;;;5072321;28;20027;-53
2022/04/26 14:51:25;;;;;;;1.70;1.60;;;;;;;;;;5073418;28;20052;-50
2022/04/26 14:53:51;;;;;;;2.22;1.33;;;;;;;;;;5072489;28;20048;-52
2022/04/26 14:56:17;;;;;;;2.42;1.80;;;;;;;;;;5080039;28;20032;-51
2022/04/26 14:58:43;;;;;;;1.73;1.02;;;;;;;;;;5091990;28;20050;-50
2022/04/26 15:01:10;;;;;;;3.05;1.45;;;;;;;;;;5071925;28;20478;-51
2022/04/26 15:03:36;;;;;;;1.83;1.52;;;;;;;;;;5073167;28;20033;-50
2022/04/26 15:06:02;;;;;;;3.00;1.45;;;;;;;;;;5072065;28;20016;-49
2022/04/26 15:11:13;;;;;;;1.52;1.10;;;;;;;;;;5072164;28;20059;-52
2022/04/26 15:16:39;;;;;;;1.70;1.30;;;;;;;;;;5093153;28;20035;-54
2022/04/26 15:19:09;;;;;;;2.17;1.43;;;;;;;;;;5073710;28;20031;-50
2022/04/26 15:21:35;;;;;;;1.60;1.23;;;;;;;;;;5072530;28;20484;-52
2022/04/26 15:24:01;;;;;;;3.55;1.55;;;;;;;;;;5071808;28;20079;-48
2022/04/26 15:26:27;;;;;;;1.58;1.00;;;;;;;;;;5080132;28;20039;-50
2022/04/26 15:28:54;;;;;;;1.52;0.98;;;;;;;;;;5072997;28;20072;-54
2022/04/26 15:31:20;;;;;;;4.03;1.05;;;;;;;;;;5071654;28;20028;-52
2022/04/26 15:33:47;;;;;;;2.80;1.00;;;;;;;;;;5072607;28;20028;-50
2022/04/26 15:36:13;;;;;;;1.30;0.90;;;;;;;;;;5072106;28;20492;-50
2022/04/26 15:38:40;;;;;;;1.33;0.85;;;;;;;;;;5072111;28;20095;-51
2022/04/26 15:41:06;;;;;;;4.13;1.02;;;;;;;;;;5071477;28;20029;-53
2022/04/26 15:43:36;;;;;;;3.55;1.02;;;;;;;;;;5068767;28;20050;-50
2022/04/26 15:46:03;;;;;;;7.38;0.95;;;;;;;;;;5091898;28;20059;-50
2022/04/26 15:48:29;;;;;;;1.45;0.90;;;;;;;;;;5076219;28;20122;-54
2022/04/26 15:50:55;;;;;;;2.13;1.00;;;;;;;;;;5082151;28;20489;-52
2022/04/26 15:53:21;;;;;;;3.05;0.93;;;;;;;;;;5072740;28;20036;-53
2022/04/26 15:55:48;;;;;;;1.65;1.30;;;;;;;;;;5072401;28;20025;-54
2022/04/26 15:58:14;;;;;;;2.15;1.13;;;;;;;;;;5072293;28;20048;-53
2022/04/26 16:00:40;;;;;;;2.60;1.17;;;;;;;;;;5071781;28;20103;-50
2022/04/26 16:03:06;;;;;;;6.43;1.33;;;;;;;;;;5070848;28;20028;-50
2022/04/26 16:05:32;;;;;;;1.95;0.95;;;;;;;;;;5070882;28;20029;-49
2022/04/26 16:07:59;;;;;;;1.25;1.00;;;;;;;;;;5070815;28;20122;-50
2022/04/26 16:21:25;;;;;;;3.60;1.38;;;;;;;;;;5071622;28;20090;-49
2022/04/26 16:23:52;;;;;;;1.40;0.88;;;;;;;;;;5071755;28;20453;-49
2022/04/26 16:26:20;;;;;;;2.15;1.17;;;;;;;;;;5072399;28;20397;-49
2022/04/26 16:28:47;;;;;;;2.88;1.08;;;;;;;;;;5070752;28;20057;-52
2022/04/26 16:31:14;;;;;;;2.45;1.13;;;;;;;;;;5070388;28;20056;-49
2022/04/26 16:33:40;;;;;;;1.17;0.90;;;;;;;;;;5071476;28;20474;-49
2022/04/26 16:36:07;;;;;;;1.50;0.90;;;;;;;;;;5070569;28;20025;-50
2022/04/26 16:38:34;;;;;;;1.00;0.90;;;;;;;;;;5066425;28;20069;-49
2022/04/26 16:41:03;;;;;;;5.65;1.13;;;;;;;;;;5072619;28;20020;-49
2022/04/26 16:43:29;;;;;;;1.52;0.77;;;;;;;;;;5079291;28;20392;-48
2022/04/26 16:45:56;;;;;;;2.10;0.70;;;;;;;;;;5074650;28;20020;-57
2022/04/26 16:48:22;;;;;;;1.38;0.73;;;;;;;;;;5069679;28;20025;-54
2022/04/26 16:50:48;;;;;;;1.77;0.88;;;;;;;;;;5071182;28;20024;-52
2022/04/26 16:53:14;;;;;;;1.77;0.95;;;;;;;;;;5070622;28;20652;-53
2022/04/26 16:55:40;;;;;;;3.05;0.88;;;;;;;;;;5071468;28;20373;-50
2022/04/26 16:58:07;;;;;;;1.25;0.75;;;;;;;;;;5071685;28;20039;-52
2022/04/26 17:00:34;;;;;;;1.20;1.10;;;;;;;;;;5070540;28;20104;-53
2022/04/26 17:03:00;;;;;;;1.60;0.93;;;;;;;;;;5070027;28;20040;-49
2022/04/26 17:05:27;;;;;;;1.25;0.70;;;;;;;;;;5071533;28;20347;-50
2022/04/26 17:07:55;;;;;;;2.55;0.93;;;;;;;;;;5070734;28;20029;-55
2022/04/26 17:10:21;;;;;;;1.15;0.88;;;;;;;;;;5071264;28;20031;-47
2022/04/26 17:12:49;;;;;;;1.35;0.70;;;;;;;;;;5073144;28;20025;-49
2022/04/26 17:15:16;;;;;;;0.65;0.65;;;;;;;;;;5080787;28;20032;-47
2022/04/26 17:17:42;;;;;;;1.15;0.85;;;;;;;;;;5072133;28;20052;-49
2022/04/26 17:20:17;;;;;;;1.50;0.75;;;;;;;;;;5074322;28;20043;-52
2022/04/26 17:22:44;;;;;;;1.00;0.75;;;;;;;;;;5075265;28;20020;-52
2022/04/26 17:25:13;;;;;;;1.08;0.55;;;;;;;;;;5074285;28;20023;-50
2022/04/26 17:27:40;;;;;;;1.63;0.80;;;;;;;;;;5074720;28;20410;-49
2022/04/26 17:30:06;;;;;;;1.83;0.65;;;;;;;;;;5072888;28;20046;-53
2022/04/26 17:32:33;;;;;;;1.08;0.88;;;;;;;;;;5075274;28;20024;-50
2022/04/26 17:34:59;;;;;;;1.75;0.80;;;;;;;;;;5073740;28;20035;-49
2022/04/26 17:37:25;;;;;;;2.95;0.85;;;;;;;;;;5074745;28;20044;-51
2022/04/26 17:39:52;;;;;;;0.95;0.85;;;;;;;;;;5073288;28;20060;-51
2022/04/26 17:42:18;;;;;;;3.13;0.80;;;;;;;;;;5073932;28;20025;-48
2022/04/26 17:44:45;;;;;;;2.30;0.70;;;;;;;;;;5092765;28;20023;-50
2022/04/26 17:47:11;;;;;;;2.00;0.70;;;;;;;;;;5075923;28;20381;-51
2022/04/26 17:49:40;;;;;;;2.83;0.70;;;;;;;;;;5074583;28;20107;-51
2022/04/26 17:52:06;;;;;;;3.67;0.90;;;;;;;;;;5073541;28;20432;-51
2022/04/26 17:57:17;;;;;;;1.88;0.90;;;;;;;;;;5074053;28;20036;-52
2022/04/26 17:59:43;;;;;;;2.65;0.80;;;;;;;;;;5073590;28;20029;-54
2022/04/26 18:02:11;;;;;;;0.73;0.73;;;;;;;;;;5073565;28;20032;-47
2022/04/26 18:04:38;;;;;;;1.25;0.70;;;;;;;;;;5073290;28;20033;-48
2022/04/26 18:07:05;;;;;;;1.77;0.70;;;;;;;;;;5074828;28;20052;-47
2022/04/26 18:09:33;;;;;;;1.60;1.00;;;;;;;;;;5074060;28;20033;-47
2022/04/26 18:11:59;;;;;;;1.80;0.77;;;;;;;;;;5073512;28;20112;-53
2022/04/26 18:14:25;;;;;;;3.42;1.40;;;;;;;;;;5073714;28;20119;-49
2022/04/26 18:16:51;;;;;;;2.38;1.00;;;;;;;;;;5073815;28;20025;-49
2022/04/26 18:19:17;;;;;;;4.43;1.15;;;;;;;;;;5073137;28;20074;-51
2022/04/26 18:21:43;;;;;;;2.03;0.75;;;;;;;;;;5073922;28;20024;-50
2022/04/26 18:24:09;;;;;;;1.52;1.00;;;;;;;;;;5073134;28;20037;-50
2022/04/26 18:26:36;;;;;;;1.67;0.90;;;;;;;;;;5073008;28;20035;-49
2022/04/26 18:29:03;;;;;;;1.67;0.80;;;;;;;;;;5081697;28;20040;-46
2022/04/26 18:31:32;;;;;;;1.35;0.82;;;;;;;;;;5073863;28;20108;-47
2022/04/26 18:33:58;;;;;;;2.92;0.88;;;;;;;;;;5073246;28;20036;-51
2022/04/26 18:36:24;;;;;;;2.60;1.02;;;;;;;;;;5073787;28;20081;-46
2022/04/26 18:38:51;;;;;;;1.10;0.80;;;;;;;;;;5073713;28;20020;-47
2022/04/26 18:41:18;;;;;;;1.75;0.90;;;;;;;;;;5072827;28;20087;-53
2022/04/26 18:43:44;;;;;;;0.90;0.80;;;;;;;;;;5073931;28;20032;-48
2022/04/26 18:46:11;;;;;;;2.58;1.00;;;;;;;;;;5072597;28;20074;-48
2022/04/26 18:48:37;;;;;;;2.55;1.40;;;;;;;;;;5073935;28;20435;-46
2022/04/26 18:51:04;;;;;;;1.38;0.82;;;;;;;;;;5072629;28;20035;-47
2022/04/26 18:53:31;;;;;;;2.75;1.00;;;;;;;;;;5073630;28;20032;-47
2022/04/26 18:55:57;;;;;;;1.27;0.90;;;;;;;;;;5073322;28;20024;-54
2022/04/26 18:58:24;;;;;;;3.65;1.00;;;;;;;;;;5074862;28;20538;-48
2022/04/26 19:00:51;;;;;;;1.55;0.57;;;;;;;;;;5072909;28;20044;-47
2022/04/26 19:03:18;;;;;;;5.22;1.48;;;;;;;;;;5072518;28;20635;-48
2022/04/26 19:05:44;;;;;;;1.42;0.65;;;;;;;;;;5073422;28;20104;-47